sensor_id;sensor_type;location;lat;lon;timestamp;temperature;humidity
39017;DHT22;24784;45.582;5.276;2022-12-28T07:14:05;1.50;99.90
39017;DHT22;24784;45.582;5.276;2022-12-28T07:16:31;1.40;99.90
39017;DHT22;24784;45.582;5.276;2022-12-28T07:18:58;1.50;99.90
39017;DHT22;24784;45.582;5.276;2022-12-28T07:21:27;1.50;99.90
39017;DHT22;24784;45.582;5.276;2022-12-28T07:23:54;1.40;99.90
39017;DHT22;24784;45.582;5.276;2022-12-28T07:26:22;1.50;99.90
39017;DHT22;24784;45.582;5.276;2022-12-28T07:28:50;1.50;99.90
39017;DHT22;24784;45.582;5.276;2022-12-28T07:31:21;1.50;99.90
39017;DHT22;24784;45.582;5.276;2022-12-28T07:33:49;1.50;99.90
39017;DHT22;24784;45.582;5.276;2022-12-28T07:36:17;1.50;99.90
39017;DHT22;24784;45.582;5.276;2022-12-28T07:38:43;1.60;99.90
39017;DHT22;24784;45.582;5.276;2022-12-28T07:41:18;1.50;99.90
39017;DHT22;24784;45.582;5.276;2022-12-28T07:43:44;1.50;99.90
39017;DHT22;24784;45.582;5.276;2022-12-28T07:46:15;1.40;99.90
39017;DHT22;24784;45.582;5.276;2022-12-28T07:48:42;1.50;99.90
39017;DHT22;24784;45.582;5.276;2022-12-28T07:51:12;1.40;99.90
39017;DHT22;24784;45.582;5.276;2022-12-28T07:53:39;1.30;99.90
39017;DHT22;24784;45.582;5.276;2022-12-28T07:56:06;1.40;99.90
39017;DHT22;24784;45.582;5.276;2022-12-28T07:58:32;1.40;99.90
39017;DHT22;24784;45.582;5.276;2022-12-28T08:01:14;1.30;99.90
39017;DHT22;24784;45.582;5.276;2022-12-28T08:03:43;1.40;99.90
39017;DHT22;24784;45.582;5.276;2022-12-28T08:06:17;1.30;99.90
39017;DHT22;24784;45.582;5.276;2022-12-28T08:08:44;1.30;99.90
39017;DHT22;24784;45.582;5.276;2022-12-28T08:11:13;1.40;99.90
39017;DHT22;24784;45.582;5.276;2022-12-28T08:13:41;1.50;99.90
39017;DHT22;24784;45.582;5.276;2022-12-28T08:16:13;1.40;99.90
39017;DHT22;24784;45.582;5.276;2022-12-28T08:18:40;1.40;99.90
39017;DHT22;24784;45.582;5.276;2022-12-28T08:21:29;1.30;99.90
39017;DHT22;24784;45.582;5.276;2022-12-28T08:23:56;1.50;99.90
39017;DHT22;24784;45.582;5.276;2022-12-28T08:26:25;1.40;99.90
39017;DHT22;24784;45.582;5.276;2022-12-28T08:28:53;1.50;99.90
39017;DHT22;24784;45.582;5.276;2022-12-28T08:31:22;1.50;99.90
39017;DHT22;24784;45.582;5.276;2022-12-28T08:33:49;1.40;99.90
39017;DHT22;24784;45.582;5.276;2022-12-28T08:36:15;1.50;99.90
39017;DHT22;24784;45.582;5.276;2022-12-28T08:38:42;1.60;99.90
39017;DHT22;24784;45.582;5.276;2022-12-28T08:41:12;1.60;99.90
39017;DHT22;24784;45.582;5.276;2022-12-28T08:43:40;1.60;99.90
39017;DHT22;24784;45.582;5.276;2022-12-28T08:46:19;1.60;99.90
39017;DHT22;24784;45.582;5.276;2022-12-28T08:48:46;1.50;99.90
39017;DHT22;24784;45.582;5.276;2022-12-28T08:51:22;1.60;99.90
39017;DHT22;24784;45.582;5.276;2022-12-28T08:53:49;1.70;99.90
39017;DHT22;24784;45.582;5.276;2022-12-28T08:56:18;1.70;99.90
39017;DHT22;24784;45.582;5.276;2022-12-28T08:58:45;1.70;99.90
39017;DHT22;24784;45.582;5.276;2022-12-28T09:01:13;1.70;99.90
39017;DHT22;24784;45.582;5.276;2022-12-28T09:03:42;1.70;99.90
39017;DHT22;24784;45.582;5.276;2022-12-28T09:06:11;1.70;99.90
39017;DHT22;24784;45.582;5.276;2022-12-28T09:08:38;1.70;99.90
39017;DHT22;24784;45.582;5.276;2022-12-28T09:11:08;1.80;99.90
39017;DHT22;24784;45.582;5.276;2022-12-28T09:13:34;1.80;99.90
39017;DHT22;24784;45.582;5.276;2022-12-28T09:16:08;1.90;99.90
39017;DHT22;24784;45.582;5.276;2022-12-28T09:18:35;1.90;99.90
39017;DHT22;24784;45.582;5.276;2022-12-28T09:21:10;1.90;99.90
39017;DHT22;24784;45.582;5.276;2022-12-28T09:23:36;2.00;99.90
39017;DHT22;24784;45.582;5.276;2022-12-28T09:26:04;2.00;99.90
39017;DHT22;24784;45.582;5.276;2022-12-28T09:28:30;2.00;99.90
39017;DHT22;24784;45.582;5.276;2022-12-28T09:30:55;2.10;99.90
39017;DHT22;24784;45.582;5.276;2022-12-28T09:33:21;2.20;99.90
39017;DHT22;24784;45.582;5.276;2022-12-28T09:36:05;2.30;99.90
39017;DHT22;24784;45.582;5.276;2022-12-28T09:38:31;2.40;99.90
39017;DHT22;24784;45.582;5.276;2022-12-28T09:40:57;2.50;99.90
39017;DHT22;24784;45.582;5.276;2022-12-28T09:43:24;2.50;99.90
39017;DHT22;24784;45.582;5.276;2022-12-28T09:45:53;2.60;99.90
39017;DHT22;24784;45.582;5.276;2022-12-28T09:48:21;2.70;99.90
39017;DHT22;24784;45.582;5.276;2022-12-28T09:50:48;2.90;99.90
39017;DHT22;24784;45.582;5.276;2022-12-28T09:53:25;3.00;99.90
39017;DHT22;24784;45.582;5.276;2022-12-28T09:56:04;3.30;99.90
39017;DHT22;24784;45.582;5.276;2022-12-28T09:58:31;3.70;99.90
39017;DHT22;24784;45.582;5.276;2022-12-28T10:01:03;3.90;99.90
39017;DHT22;24784;45.582;5.276;2022-12-28T10:03:35;4.10;99.90
39017;DHT22;24784;45.582;5.276;2022-12-28T10:06:03;4.40;99.90
39017;DHT22;24784;45.582;5.276;2022-12-28T10:08:37;4.70;99.90
39017;DHT22;24784;45.582;5.276;2022-12-28T10:11:05;4.90;99.90
39017;DHT22;24784;45.582;5.276;2022-12-28T10:13:37;5.00;99.90
39017;DHT22;24784;45.582;5.276;2022-12-28T10:16:04;5.30;99.90
39017;DHT22;24784;45.582;5.276;2022-12-28T10:18:31;5.40;99.90
39017;DHT22;24784;45.582;5.276;2022-12-28T10:20:57;5.30;99.90
39017;DHT22;24784;45.582;5.276;2022-12-28T10:23:26;5.40;99.90
39017;DHT22;24784;45.582;5.276;2022-12-28T10:25:54;5.60;99.90
39017;DHT22;24784;45.582;5.276;2022-12-28T10:28:25;5.50;99.90
39017;DHT22;24784;45.582;5.276;2022-12-28T10:31:05;5.40;99.90
39017;DHT22;24784;45.582;5.276;2022-12-28T10:33:31;5.30;99.90
39017;DHT22;24784;45.582;5.276;2022-12-28T10:35:58;5.30;99.90
39017;DHT22;24784;45.582;5.276;2022-12-28T10:38:33;5.30;99.90
39017;DHT22;24784;45.582;5.276;2022-12-28T10:41:04;5.30;99.90
39017;DHT22;24784;45.582;5.276;2022-12-28T10:43:35;5.20;99.90
39017;DHT22;24784;45.582;5.276;2022-12-28T10:46:03;5.30;99.90
39017;DHT22;24784;45.582;5.276;2022-12-28T10:48:50;5.40;99.90
39017;DHT22;24784;45.582;5.276;2022-12-28T10:51:28;5.60;99.90
39017;DHT22;24784;45.582;5.276;2022-12-28T10:53:55;5.70;99.90
39017;DHT22;24784;45.582;5.276;2022-12-28T10:56:32;5.90;99.90
39017;DHT22;24784;45.582;5.276;2022-12-28T11:01:38;5.90;99.90
39017;DHT22;24784;45.582;5.276;2022-12-28T11:04:17;5.90;99.90
39017;DHT22;24784;45.582;5.276;2022-12-28T11:06:55;6.00;99.90
39017;DHT22;24784;45.582;5.276;2022-12-28T11:11:53;6.30;99.90
39017;DHT22;24784;45.582;5.276;2022-12-28T11:16:47;6.70;99.90
39017;DHT22;24784;45.582;5.276;2022-12-28T11:19:13;6.90;99.90
39017;DHT22;24784;45.582;5.276;2022-12-28T11:21:40;7.40;99.90
39017;DHT22;24784;45.582;5.276;2022-12-28T11:24:14;7.50;99.90
39017;DHT22;24784;45.582;5.276;2022-12-28T11:26:45;7.50;99.90
39017;DHT22;24784;45.582;5.276;2022-12-28T11:29:14;7.60;99.90
39017;DHT22;24784;45.582;5.276;2022-12-28T11:31:59;7.70;99.90
39017;DHT22;24784;45.582;5.276;2022-12-28T11:34:27;7.80;99.90
39017;DHT22;24784;45.582;5.276;2022-12-28T11:36:54;7.90;99.90
39017;DHT22;24784;45.582;5.276;2022-12-28T11:41:58;8.60;99.90
39017;DHT22;24784;45.582;5.276;2022-12-28T11:47:26;8.70;99.90
39017;DHT22;24784;45.582;5.276;2022-12-28T11:52:59;8.80;99.90
39017;DHT22;24784;45.582;5.276;2022-12-28T11:55:32;8.80;99.90
39017;DHT22;24784;45.582;5.276;2022-12-28T12:00:53;9.30;99.90
39017;DHT22;24784;45.582;5.276;2022-12-28T12:03:19;9.40;99.90
39017;DHT22;24784;45.582;5.276;2022-12-28T12:05:49;9.50;99.90
39017;DHT22;24784;45.582;5.276;2022-12-28T12:10:48;9.60;99.90
39017;DHT22;24784;45.582;5.276;2022-12-28T12:16:00;9.60;99.90
39017;DHT22;24784;45.582;5.276;2022-12-28T12:18:29;9.60;99.90
39017;DHT22;24784;45.582;5.276;2022-12-28T12:21:06;9.60;99.90
39017;DHT22;24784;45.582;5.276;2022-12-28T12:23:42;9.90;99.90
39017;DHT22;24784;45.582;5.276;2022-12-28T12:28:51;10.20;99.90
39017;DHT22;24784;45.582;5.276;2022-12-28T12:31:36;10.20;99.90
39017;DHT22;24784;45.582;5.276;2022-12-28T12:34:13;10.10;99.90
39017;DHT22;24784;45.582;5.276;2022-12-28T12:45:16;10.10;99.90
39017;DHT22;24784;45.582;5.276;2022-12-28T12:53:57;10.20;99.90
39017;DHT22;24784;45.582;5.276;2022-12-28T12:59:35;10.30;99.90
39017;DHT22;24784;45.582;5.276;2022-12-28T13:05:08;10.30;99.90
39017;DHT22;24784;45.582;5.276;2022-12-28T13:07:39;10.30;99.90
39017;DHT22;24784;45.582;5.276;2022-12-28T13:10:12;10.20;99.90
39017;DHT22;24784;45.582;5.276;2022-12-28T13:12:40;10.30;99.90
39017;DHT22;24784;45.582;5.276;2022-12-28T13:15:13;10.50;99.90
39017;DHT22;24784;45.582;5.276;2022-12-28T13:17:59;10.50;99.90
39017;DHT22;24784;45.582;5.276;2022-12-28T13:20:25;10.40;99.90
39017;DHT22;24784;45.582;5.276;2022-12-28T13:22:54;10.50;99.90
39017;DHT22;24784;45.582;5.276;2022-12-28T13:25:32;10.50;99.90
39017;DHT22;24784;45.582;5.276;2022-12-28T13:28:02;10.60;99.90
39017;DHT22;24784;45.582;5.276;2022-12-28T13:30:31;10.50;99.90
39017;DHT22;24784;45.582;5.276;2022-12-28T13:32:59;10.40;99.90
39017;DHT22;24784;45.582;5.276;2022-12-28T13:35:28;10.50;99.90
39017;DHT22;24784;45.582;5.276;2022-12-28T13:38:11;10.60;99.90
39017;DHT22;24784;45.582;5.276;2022-12-28T13:40:38;10.50;99.90
39017;DHT22;24784;45.582;5.276;2022-12-28T13:46:01;10.40;99.90
39017;DHT22;24784;45.582;5.276;2022-12-28T13:48:34;10.30;99.90
39017;DHT22;24784;45.582;5.276;2022-12-28T13:51:02;10.50;99.90
39017;DHT22;24784;45.582;5.276;2022-12-28T13:53:29;10.50;99.90
39017;DHT22;24784;45.582;5.276;2022-12-28T13:56:01;10.50;99.90
39017;DHT22;24784;45.582;5.276;2022-12-28T13:58:36;10.60;99.90
39017;DHT22;24784;45.582;5.276;2022-12-28T14:01:11;10.60;99.90
39017;DHT22;24784;45.582;5.276;2022-12-28T14:03:40;10.60;99.90
39017;DHT22;24784;45.582;5.276;2022-12-28T14:06:09;10.60;99.90
39017;DHT22;24784;45.582;5.276;2022-12-28T14:08:41;10.50;99.90
39017;DHT22;24784;45.582;5.276;2022-12-28T14:11:08;10.40;99.90
39017;DHT22;24784;45.582;5.276;2022-12-28T14:13:36;10.30;99.90
39017;DHT22;24784;45.582;5.276;2022-12-28T14:16:03;10.30;99.90
39017;DHT22;24784;45.582;5.276;2022-12-28T14:18:30;10.30;99.90
39017;DHT22;24784;45.582;5.276;2022-12-28T14:20:58;10.20;99.90
39017;DHT22;24784;45.582;5.276;2022-12-28T14:23:36;10.30;99.90
39017;DHT22;24784;45.582;5.276;2022-12-28T14:26:05;10.30;99.90
39017;DHT22;24784;45.582;5.276;2022-12-28T14:28:47;10.20;99.90
39017;DHT22;24784;45.582;5.276;2022-12-28T14:31:31;10.20;99.90
39017;DHT22;24784;45.582;5.276;2022-12-28T14:34:04;10.20;99.90
39017;DHT22;24784;45.582;5.276;2022-12-28T14:36:48;10.30;99.90
39017;DHT22;24784;45.582;5.276;2022-12-28T14:39:27;10.30;99.90
39017;DHT22;24784;45.582;5.276;2022-12-28T14:41:54;10.30;99.90
39017;DHT22;24784;45.582;5.276;2022-12-28T14:44:42;10.30;99.90
39017;DHT22;24784;45.582;5.276;2022-12-28T14:47:45;10.40;99.90
39017;DHT22;24784;45.582;5.276;2022-12-28T14:50:25;10.40;99.90
39017;DHT22;24784;45.582;5.276;2022-12-28T14:53:07;10.40;99.90
39017;DHT22;24784;45.582;5.276;2022-12-28T14:56:01;10.40;99.90
39017;DHT22;24784;45.582;5.276;2022-12-28T15:01:02;10.40;99.90
39017;DHT22;24784;45.582;5.276;2022-12-28T15:06:18;10.40;99.90
39017;DHT22;24784;45.582;5.276;2022-12-28T15:08:49;10.40;99.90
39017;DHT22;24784;45.582;5.276;2022-12-28T15:11:18;10.40;99.90
39017;DHT22;24784;45.582;5.276;2022-12-28T15:13:44;10.40;99.90
39017;DHT22;24784;45.582;5.276;2022-12-28T15:16:11;10.30;99.90
39017;DHT22;24784;45.582;5.276;2022-12-28T15:18:39;10.30;99.90
39017;DHT22;24784;45.582;5.276;2022-12-28T15:21:20;10.30;99.90
39017;DHT22;24784;45.582;5.276;2022-12-28T15:23:51;10.30;99.90
39017;DHT22;24784;45.582;5.276;2022-12-28T15:26:17;10.20;99.90
39017;DHT22;24784;45.582;5.276;2022-12-28T15:28:45;10.20;99.90
39017;DHT22;24784;45.582;5.276;2022-12-28T15:31:21;10.30;99.90
39017;DHT22;24784;45.582;5.276;2022-12-28T15:33:48;10.20;99.90
39017;DHT22;24784;45.582;5.276;2022-12-28T15:36:18;10.20;99.90
39017;DHT22;24784;45.582;5.276;2022-12-28T15:38:45;10.10;99.90
39017;DHT22;24784;45.582;5.276;2022-12-28T15:41:12;10.30;99.90
39017;DHT22;24784;45.582;5.276;2022-12-28T15:43:56;10.20;99.90
39017;DHT22;24784;45.582;5.276;2022-12-28T15:46:22;10.10;99.90
39017;DHT22;24784;45.582;5.276;2022-12-28T15:48:47;10.20;99.90
39017;DHT22;24784;45.582;5.276;2022-12-28T15:51:13;10.30;99.90
39017;DHT22;24784;45.582;5.276;2022-12-28T15:53:39;10.30;99.90
39017;DHT22;24784;45.582;5.276;2022-12-28T15:56:05;10.30;99.90
39017;DHT22;24784;45.582;5.276;2022-12-28T15:58:31;10.20;99.90
39017;DHT22;24784;45.582;5.276;2022-12-28T16:00:58;10.30;99.90
39017;DHT22;24784;45.582;5.276;2022-12-28T16:03:24;10.20;99.90
39017;DHT22;24784;45.582;5.276;2022-12-28T16:05:50;10.30;99.90
39017;DHT22;24784;45.582;5.276;2022-12-28T16:08:15;10.30;99.90
39017;DHT22;24784;45.582;5.276;2022-12-28T16:10:41;10.30;99.90
39017;DHT22;24784;45.582;5.276;2022-12-28T16:13:10;10.10;99.90
39017;DHT22;24784;45.582;5.276;2022-12-28T16:15:38;10.10;99.90
39017;DHT22;24784;45.582;5.276;2022-12-28T16:18:06;10.20;99.90
39017;DHT22;24784;45.582;5.276;2022-12-28T16:20:32;10.20;99.90
39017;DHT22;24784;45.582;5.276;2022-12-28T16:22:58;10.20;99.90
39017;DHT22;24784;45.582;5.276;2022-12-28T16:25:24;10.10;99.90
39017;DHT22;24784;45.582;5.276;2022-12-28T16:27:52;10.10;99.90
39017;DHT22;24784;45.582;5.276;2022-12-28T16:30:18;10.20;99.90
39017;DHT22;24784;45.582;5.276;2022-12-28T16:32:46;10.20;99.90
39017;DHT22;24784;45.582;5.276;2022-12-28T16:35:14;10.20;99.90
39017;DHT22;24784;45.582;5.276;2022-12-28T16:37:40;10.20;99.90
39017;DHT22;24784;45.582;5.276;2022-12-28T16:40:06;10.20;99.90
39017;DHT22;24784;45.582;5.276;2022-12-28T16:42:32;10.30;99.90
39017;DHT22;24784;45.582;5.276;2022-12-28T16:44:58;10.30;99.90
39017;DHT22;24784;45.582;5.276;2022-12-28T16:47:24;10.30;99.90
39017;DHT22;24784;45.582;5.276;2022-12-28T16:49:50;10.30;99.90
39017;DHT22;24784;45.582;5.276;2022-12-28T16:52:22;10.20;99.90
39017;DHT22;24784;45.582;5.276;2022-12-28T16:54:55;10.30;99.90
39017;DHT22;24784;45.582;5.276;2022-12-28T16:57:24;10.20;99.90
39017;DHT22;24784;45.582;5.276;2022-12-28T16:59:51;10.10;99.90
39017;DHT22;24784;45.582;5.276;2022-12-28T17:02:22;10.10;99.90
39017;DHT22;24784;45.582;5.276;2022-12-28T17:04:48;10.10;99.90
39017;DHT22;24784;45.582;5.276;2022-12-28T17:07:14;10.20;99.90
39017;DHT22;24784;45.582;5.276;2022-12-28T17:09:40;10.20;99.90
39017;DHT22;24784;45.582;5.276;2022-12-28T17:12:06;10.20;99.90
39017;DHT22;24784;45.582;5.276;2022-12-28T17:14:31;10.20;99.90
39017;DHT22;24784;45.582;5.276;2022-12-28T17:16:57;10.30;99.90
39017;DHT22;24784;45.582;5.276;2022-12-28T17:19:23;10.30;99.90
39017;DHT22;24784;45.582;5.276;2022-12-28T17:21:52;10.30;99.90
39017;DHT22;24784;45.582;5.276;2022-12-28T17:24:17;10.30;99.90
39017;DHT22;24784;45.582;5.276;2022-12-28T17:26:43;10.30;99.90
39017;DHT22;24784;45.582;5.276;2022-12-28T17:29:21;10.30;99.90
39017;DHT22;24784;45.582;5.276;2022-12-28T17:31:50;10.20;99.90
39017;DHT22;24784;45.582;5.276;2022-12-28T17:34:15;10.30;99.90
39017;DHT22;24784;45.582;5.276;2022-12-28T17:36:41;10.30;99.90
39017;DHT22;24784;45.582;5.276;2022-12-28T17:39:07;10.20;99.90
39017;DHT22;24784;45.582;5.276;2022-12-28T17:41:33;10.20;99.90
39017;DHT22;24784;45.582;5.276;2022-12-28T17:43:59;10.20;99.90
39017;DHT22;24784;45.582;5.276;2022-12-28T17:46:29;10.10;99.90
39017;DHT22;24784;45.582;5.276;2022-12-28T17:48:56;10.10;99.90
39017;DHT22;24784;45.582;5.276;2022-12-28T17:51:23;10.00;99.90
39017;DHT22;24784;45.582;5.276;2022-12-28T17:53:52;10.00;99.90
39017;DHT22;24784;45.582;5.276;2022-12-28T17:56:18;10.00;99.90
39017;DHT22;24784;45.582;5.276;2022-12-28T17:58:44;9.90;99.90
39017;DHT22;24784;45.582;5.276;2022-12-28T18:01:15;10.00;99.90
39017;DHT22;24784;45.582;5.276;2022-12-28T18:03:43;9.90;99.90
39017;DHT22;24784;45.582;5.276;2022-12-28T18:06:09;9.90;99.90
39017;DHT22;24784;45.582;5.276;2022-12-28T18:08:35;9.80;99.90
39017;DHT22;24784;45.582;5.276;2022-12-28T18:11:01;9.80;99.90
39017;DHT22;24784;45.582;5.276;2022-12-28T18:13:27;9.70;99.90
39017;DHT22;24784;45.582;5.276;2022-12-28T18:15:53;9.70;99.90
39017;DHT22;24784;45.582;5.276;2022-12-28T18:18:18;9.70;99.90
39017;DHT22;24784;45.582;5.276;2022-12-28T18:20:58;9.80;99.90
39017;DHT22;24784;45.582;5.276;2022-12-28T18:23:24;9.70;99.90
39017;DHT22;24784;45.582;5.276;2022-12-28T18:26:05;9.80;99.90
39017;DHT22;24784;45.582;5.276;2022-12-28T18:28:35;9.70;99.90
39017;DHT22;24784;45.582;5.276;2022-12-28T18:31:04;9.70;99.90
39017;DHT22;24784;45.582;5.276;2022-12-28T18:33:35;9.60;99.90
39017;DHT22;24784;45.582;5.276;2022-12-28T18:36:09;9.60;99.90
39017;DHT22;24784;45.582;5.276;2022-12-28T18:38:42;9.50;99.90
39017;DHT22;24784;45.582;5.276;2022-12-28T18:41:10;9.50;99.90
39017;DHT22;24784;45.582;5.276;2022-12-28T18:43:36;9.60;99.90
39017;DHT22;24784;45.582;5.276;2022-12-28T18:46:03;9.50;99.90
39017;DHT22;24784;45.582;5.276;2022-12-28T18:48:30;9.40;99.90
39017;DHT22;24784;45.582;5.276;2022-12-28T18:51:03;9.50;99.90
39017;DHT22;24784;45.582;5.276;2022-12-28T18:53:30;9.40;99.90
39017;DHT22;24784;45.582;5.276;2022-12-28T18:56:03;9.40;99.90
39017;DHT22;24784;45.582;5.276;2022-12-28T18:58:32;9.40;99.90
39017;DHT22;24784;45.582;5.276;2022-12-28T19:01:19;9.30;99.90
39017;DHT22;24784;45.582;5.276;2022-12-28T19:03:47;9.30;99.90
39017;DHT22;24784;45.582;5.276;2022-12-28T19:06:13;9.30;99.90
39017;DHT22;24784;45.582;5.276;2022-12-28T19:08:42;9.30;99.90
39017;DHT22;24784;45.582;5.276;2022-12-28T19:11:11;9.30;99.90
39017;DHT22;24784;45.582;5.276;2022-12-28T19:13:44;9.20;99.90
39017;DHT22;24784;45.582;5.276;2022-12-28T19:16:14;9.20;99.90
39017;DHT22;24784;45.582;5.276;2022-12-28T19:18:41;9.20;99.90
39017;DHT22;24784;45.582;5.276;2022-12-28T19:21:30;9.20;99.90
39017;DHT22;24784;45.582;5.276;2022-12-28T19:24:08;9.20;99.90
39017;DHT22;24784;45.582;5.276;2022-12-28T19:26:39;9.20;99.90
39017;DHT22;24784;45.582;5.276;2022-12-28T19:29:06;9.20;99.90
39017;DHT22;24784;45.582;5.276;2022-12-28T19:31:32;9.20;99.90
39017;DHT22;24784;45.582;5.276;2022-12-28T19:33:58;9.20;99.90
39017;DHT22;24784;45.582;5.276;2022-12-28T19:36:25;9.20;99.90
39017;DHT22;24784;45.582;5.276;2022-12-28T19:38:54;9.20;99.90
39017;DHT22;24784;45.582;5.276;2022-12-28T19:41:20;9.10;99.90
39017;DHT22;24784;45.582;5.276;2022-12-28T19:43:46;9.20;99.90
39017;DHT22;24784;45.582;5.276;2022-12-28T19:46:16;9.20;99.90
39017;DHT22;24784;45.582;5.276;2022-12-28T19:48:42;9.20;99.90
39017;DHT22;24784;45.582;5.276;2022-12-28T19:51:09;9.30;99.90
39017;DHT22;24784;45.582;5.276;2022-12-28T19:53:35;9.20;99.90
39017;DHT22;24784;45.582;5.276;2022-12-28T19:58:30;9.10;99.90
39017;DHT22;24784;45.582;5.276;2022-12-28T20:01:06;9.10;99.90
39017;DHT22;24784;45.582;5.276;2022-12-28T20:03:32;9.10;99.90
39017;DHT22;24784;45.582;5.276;2022-12-28T20:06:09;9.00;99.90
39017;DHT22;24784;45.582;5.276;2022-12-28T20:08:38;9.00;99.90
39017;DHT22;24784;45.582;5.276;2022-12-28T20:11:05;9.10;99.90
39017;DHT22;24784;45.582;5.276;2022-12-28T20:13:31;9.10;99.90
39017;DHT22;24784;45.582;5.276;2022-12-28T20:16:05;8.90;99.90
39017;DHT22;24784;45.582;5.276;2022-12-28T20:18:31;8.80;99.90
39017;DHT22;24784;45.582;5.276;2022-12-28T20:21:05;8.80;99.90
39017;DHT22;24784;45.582;5.276;2022-12-28T20:23:37;8.80;99.90
39017;DHT22;24784;45.582;5.276;2022-12-28T20:26:08;8.80;99.90
39017;DHT22;24784;45.582;5.276;2022-12-28T20:28:47;8.80;99.90
39017;DHT22;24784;45.582;5.276;2022-12-28T20:31:19;8.70;99.90
39017;DHT22;24784;45.582;5.276;2022-12-28T20:33:45;8.50;99.90
39017;DHT22;24784;45.582;5.276;2022-12-28T20:36:18;8.50;99.90
39017;DHT22;24784;45.582;5.276;2022-12-28T20:38:45;8.70;99.90
39017;DHT22;24784;45.582;5.276;2022-12-28T20:41:22;8.70;99.90
39017;DHT22;24784;45.582;5.276;2022-12-28T20:44:09;8.60;99.90
39017;DHT22;24784;45.582;5.276;2022-12-28T20:46:36;8.40;99.90
39017;DHT22;24784;45.582;5.276;2022-12-28T20:49:03;8.20;99.90
39017;DHT22;24784;45.582;5.276;2022-12-28T20:51:29;8.30;99.90
39017;DHT22;24784;45.582;5.276;2022-12-28T20:53:55;8.40;99.90
39017;DHT22;24784;45.582;5.276;2022-12-28T20:56:21;8.30;99.90
39017;DHT22;24784;45.582;5.276;2022-12-28T20:58:50;8.40;99.90
39017;DHT22;24784;45.582;5.276;2022-12-28T21:01:16;8.40;99.90
39017;DHT22;24784;45.582;5.276;2022-12-28T21:03:42;8.40;99.90
39017;DHT22;24784;45.582;5.276;2022-12-28T21:06:08;8.30;99.90
39017;DHT22;24784;45.582;5.276;2022-12-28T21:08:34;8.10;99.90
39017;DHT22;24784;45.582;5.276;2022-12-28T21:11:01;8.00;99.90
39017;DHT22;24784;45.582;5.276;2022-12-28T21:13:27;8.00;99.90
39017;DHT22;24784;45.582;5.276;2022-12-28T21:15:53;7.90;99.90
39017;DHT22;24784;45.582;5.276;2022-12-28T21:18:20;8.00;99.90
39017;DHT22;24784;45.582;5.276;2022-12-28T21:20:47;8.00;99.90
39017;DHT22;24784;45.582;5.276;2022-12-28T21:23:15;8.10;99.90
39017;DHT22;24784;45.582;5.276;2022-12-28T21:25:41;8.20;99.90
39017;DHT22;24784;45.582;5.276;2022-12-28T21:28:07;8.20;99.90
39017;DHT22;24784;45.582;5.276;2022-12-28T21:30:33;8.30;99.90
39017;DHT22;24784;45.582;5.276;2022-12-28T21:32:58;8.30;99.90
39017;DHT22;24784;45.582;5.276;2022-12-28T21:35:24;8.20;99.90
39017;DHT22;24784;45.582;5.276;2022-12-28T21:37:50;8.30;99.90
39017;DHT22;24784;45.582;5.276;2022-12-28T21:40:16;8.30;99.90
39017;DHT22;24784;45.582;5.276;2022-12-28T21:42:42;8.40;99.90
39017;DHT22;24784;45.582;5.276;2022-12-28T21:45:08;8.60;99.90
39017;DHT22;24784;45.582;5.276;2022-12-28T21:47:34;8.80;99.90
39017;DHT22;24784;45.582;5.276;2022-12-28T21:50:01;8.90;99.90
39017;DHT22;24784;45.582;5.276;2022-12-28T21:52:32;9.10;99.90
39017;DHT22;24784;45.582;5.276;2022-12-28T21:54:57;9.00;99.90
39017;DHT22;24784;45.582;5.276;2022-12-28T21:57:43;9.10;99.90
